sensor_id;sensor_type;location;lat;lon;timestamp;pressure;altitude;pressure_sealevel;temperature;humidity
19761;BME280;10039;42.632;23.408;2023-03-26T00:00:58;94509.97;;;11.29;66.44
19761;BME280;10039;42.632;23.408;2023-03-26T00:03:24;94491.44;;;11.10;66.26
19761;BME280;10039;42.632;23.408;2023-03-26T00:06:03;94483.63;;;11.03;65.85
19761;BME280;10039;42.632;23.408;2023-03-26T00:08:30;94479.16;;;11.13;65.93
19761;BME280;10039;42.632;23.408;2023-03-26T00:10:56;94504.06;;;11.22;66.10
19761;BME280;10039;42.632;23.408;2023-03-26T00:13:21;94526.19;;;11.35;65.57
19761;BME280;10039;42.632;23.408;2023-03-26T00:15:47;94500.31;;;11.07;66.22
19761;BME280;10039;42.632;23.408;2023-03-26T00:18:13;94513.03;;;11.15;66.38
19761;BME280;10039;42.632;23.408;2023-03-26T00:20:38;94516.25;;;11.35;66.38
19761;BME280;10039;42.632;23.408;2023-03-26T00:23:05;94493.66;;;10.99;66.36
19761;BME280;10039;42.632;23.408;2023-03-26T00:25:32;94501.50;;;11.18;66.50
19761;BME280;10039;42.632;23.408;2023-03-26T00:27:59;94492.97;;;11.23;66.89
19761;BME280;10039;42.632;23.408;2023-03-26T00:30:25;94499.47;;;11.22;66.94
19761;BME280;10039;42.632;23.408;2023-03-26T00:32:50;94469.94;;;10.89;67.47
19761;BME280;10039;42.632;23.408;2023-03-26T00:35:16;94493.16;;;11.04;66.24
19761;BME280;10039;42.632;23.408;2023-03-26T00:37:42;94466.84;;;11.03;66.75
19761;BME280;10039;42.632;23.408;2023-03-26T00:40:10;94445.38;;;10.81;67.12
19761;BME280;10039;42.632;23.408;2023-03-26T00:42:37;94451.44;;;10.82;66.68
19761;BME280;10039;42.632;23.408;2023-03-26T00:45:06;94442.56;;;10.72;66.96
19761;BME280;10039;42.632;23.408;2023-03-26T00:47:33;94452.44;;;10.88;66.54
19761;BME280;10039;42.632;23.408;2023-03-26T00:49:58;94475.94;;;11.05;66.08
19761;BME280;10039;42.632;23.408;2023-03-26T00:52:25;94453.41;;;10.94;66.04
19761;BME280;10039;42.632;23.408;2023-03-26T00:54:53;94478.19;;;11.07;66.07
19761;BME280;10039;42.632;23.408;2023-03-26T00:57:20;94471.88;;;11.01;65.65
19761;BME280;10039;42.632;23.408;2023-03-26T00:59:48;94436.72;;;10.90;65.93
19761;BME280;10039;42.632;23.408;2023-03-26T01:02:17;94463.56;;;11.11;65.45
19761;BME280;10039;42.632;23.408;2023-03-26T01:04:50;94442.59;;;10.97;65.61
19761;BME280;10039;42.632;23.408;2023-03-26T01:07:22;94428.91;;;10.83;65.31
19761;BME280;10039;42.632;23.408;2023-03-26T01:09:55;94438.78;;;10.98;64.94
19761;BME280;10039;42.632;23.408;2023-03-26T01:12:23;94452.78;;;11.14;64.40
19761;BME280;10039;42.632;23.408;2023-03-26T01:14:52;94462.28;;;11.15;63.77
19761;BME280;10039;42.632;23.408;2023-03-26T01:17:20;94465.81;;;11.13;63.44
19761;BME280;10039;42.632;23.408;2023-03-26T01:19:52;94449.56;;;10.95;63.42
19761;BME280;10039;42.632;23.408;2023-03-26T01:22:24;94448.03;;;10.81;63.82
19761;BME280;10039;42.632;23.408;2023-03-26T01:24:50;94472.09;;;11.06;63.64
19761;BME280;10039;42.632;23.408;2023-03-26T01:27:34;94437.78;;;10.80;63.83
19761;BME280;10039;42.632;23.408;2023-03-26T01:30:18;94485.59;;;11.15;63.56
19761;BME280;10039;42.632;23.408;2023-03-26T01:35:51;94494.00;;;11.01;64.47
19761;BME280;10039;42.632;23.408;2023-03-26T01:38:44;94477.19;;;10.88;64.75
19761;BME280;10039;42.632;23.408;2023-03-26T01:41:43;94487.16;;;11.00;64.25
19761;BME280;10039;42.632;23.408;2023-03-26T01:44:28;94489.19;;;11.09;64.83
19761;BME280;10039;42.632;23.408;2023-03-26T01:46:58;94493.97;;;10.89;64.78
19761;BME280;10039;42.632;23.408;2023-03-26T01:49:26;94508.19;;;10.98;65.38
19761;BME280;10039;42.632;23.408;2023-03-26T01:51:53;94508.06;;;11.02;65.34
19761;BME280;10039;42.632;23.408;2023-03-26T01:54:27;94479.38;;;10.65;65.69
19761;BME280;10039;42.632;23.408;2023-03-26T01:57:17;94494.66;;;10.77;66.02
19761;BME280;10039;42.632;23.408;2023-03-26T02:05:27;94489.44;;;10.73;66.31
19761;BME280;10039;42.632;23.408;2023-03-26T02:08:07;94476.28;;;10.66;66.93
19761;BME280;10039;42.632;23.408;2023-03-26T02:10:40;94509.94;;;10.76;66.54
19761;BME280;10039;42.632;23.408;2023-03-26T02:13:09;94483.25;;;10.48;66.86
19761;BME280;10039;42.632;23.408;2023-03-26T02:15:35;94502.22;;;10.66;67.01
19761;BME280;10039;42.632;23.408;2023-03-26T02:18:01;94531.34;;;10.89;67.01
19761;BME280;10039;42.632;23.408;2023-03-26T02:20:28;94510.69;;;10.77;66.91
19761;BME280;10039;42.632;23.408;2023-03-26T02:22:55;94506.19;;;10.74;66.94
19761;BME280;10039;42.632;23.408;2023-03-26T02:25:21;94522.59;;;11.01;66.37
19761;BME280;10039;42.632;23.408;2023-03-26T02:27:49;94479.81;;;10.76;65.83
19761;BME280;10039;42.632;23.408;2023-03-26T02:30:20;94470.34;;;10.87;66.26
19761;BME280;10039;42.632;23.408;2023-03-26T02:32:50;94500.16;;;10.86;66.83
19761;BME280;10039;42.632;23.408;2023-03-26T02:35:16;94507.53;;;10.94;66.82
19761;BME280;10039;42.632;23.408;2023-03-26T02:37:42;94488.97;;;11.03;66.36
19761;BME280;10039;42.632;23.408;2023-03-26T02:40:11;94498.69;;;11.10;66.08
19761;BME280;10039;42.632;23.408;2023-03-26T02:42:37;94521.56;;;11.11;66.04
19761;BME280;10039;42.632;23.408;2023-03-26T02:45:05;94508.28;;;10.95;66.51
19761;BME280;10039;42.632;23.408;2023-03-26T02:47:31;94499.16;;;10.80;66.71
19761;BME280;10039;42.632;23.408;2023-03-26T02:49:58;94520.75;;;10.85;67.45
19761;BME280;10039;42.632;23.408;2023-03-26T02:52:24;94477.69;;;10.42;66.91
19761;BME280;10039;42.632;23.408;2023-03-26T02:54:49;94491.91;;;10.52;67.35
19761;BME280;10039;42.632;23.408;2023-03-26T02:57:15;94480.25;;;10.46;67.53
19761;BME280;10039;42.632;23.408;2023-03-26T02:59:41;94524.97;;;10.70;67.57
19761;BME280;10039;42.632;23.408;2023-03-26T03:02:07;94502.78;;;10.45;67.83
19761;BME280;10039;42.632;23.408;2023-03-26T03:04:32;94525.63;;;10.46;68.40
19761;BME280;10039;42.632;23.408;2023-03-26T03:06:58;94515.56;;;10.21;68.50
19761;BME280;10039;42.632;23.408;2023-03-26T03:09:24;94522.47;;;10.35;68.22
19761;BME280;10039;42.632;23.408;2023-03-26T03:11:50;94507.16;;;10.23;68.51
19761;BME280;10039;42.632;23.408;2023-03-26T03:14:19;94525.66;;;10.14;69.18
19761;BME280;10039;42.632;23.408;2023-03-26T03:16:45;94543.81;;;10.35;69.08
19761;BME280;10039;42.632;23.408;2023-03-26T03:19:11;94528.06;;;10.24;68.60
19761;BME280;10039;42.632;23.408;2023-03-26T03:21:37;94518.91;;;10.09;68.92
19761;BME280;10039;42.632;23.408;2023-03-26T03:24:03;94537.81;;;10.15;68.94
19761;BME280;10039;42.632;23.408;2023-03-26T03:26:30;94554.16;;;10.17;68.53
19761;BME280;10039;42.632;23.408;2023-03-26T03:28:56;94550.00;;;10.16;69.01
19761;BME280;10039;42.632;23.408;2023-03-26T03:31:23;94527.16;;;10.15;68.94
19761;BME280;10039;42.632;23.408;2023-03-26T03:33:50;94542.31;;;10.18;68.76
19761;BME280;10039;42.632;23.408;2023-03-26T03:36:18;94557.16;;;10.19;68.23
19761;BME280;10039;42.632;23.408;2023-03-26T03:38:46;94570.41;;;10.22;68.73
19761;BME280;10039;42.632;23.408;2023-03-26T03:41:13;94566.97;;;10.38;68.62
19761;BME280;10039;42.632;23.408;2023-03-26T03:43:38;94544.50;;;10.23;68.47
19761;BME280;10039;42.632;23.408;2023-03-26T03:46:04;94542.97;;;10.06;68.76
19761;BME280;10039;42.632;23.408;2023-03-26T03:48:30;94528.13;;;9.73;69.60
19761;BME280;10039;42.632;23.408;2023-03-26T03:50:56;94536.53;;;9.72;70.09
19761;BME280;10039;42.632;23.408;2023-03-26T03:53:22;94526.13;;;9.61;70.16
19761;BME280;10039;42.632;23.408;2023-03-26T03:55:52;94559.78;;;9.87;69.88
19761;BME280;10039;42.632;23.408;2023-03-26T03:58:20;94529.13;;;9.79;69.07
19761;BME280;10039;42.632;23.408;2023-03-26T04:00:50;94545.47;;;9.97;68.82
19761;BME280;10039;42.632;23.408;2023-03-26T04:03:17;94572.84;;;10.01;69.13
19761;BME280;10039;42.632;23.408;2023-03-26T04:05:45;94556.47;;;9.99;69.06
19761;BME280;10039;42.632;23.408;2023-03-26T04:08:15;94579.31;;;10.00;68.91
19761;BME280;10039;42.632;23.408;2023-03-26T04:10:42;94593.25;;;10.07;69.01
19761;BME280;10039;42.632;23.408;2023-03-26T04:13:09;94561.81;;;9.99;68.92
19761;BME280;10039;42.632;23.408;2023-03-26T04:15:34;94577.63;;;10.06;68.93
19761;BME280;10039;42.632;23.408;2023-03-26T04:18:00;94577.16;;;10.27;68.56
19761;BME280;10039;42.632;23.408;2023-03-26T04:20:26;94584.81;;;10.25;67.73
19761;BME280;10039;42.632;23.408;2023-03-26T04:22:52;94613.41;;;10.40;68.12
19761;BME280;10039;42.632;23.408;2023-03-26T04:25:18;94613.00;;;10.26;67.91
19761;BME280;10039;42.632;23.408;2023-03-26T04:27:44;94631.81;;;10.51;68.18
19761;BME280;10039;42.632;23.408;2023-03-26T04:30:13;94619.47;;;10.41;68.07
19761;BME280;10039;42.632;23.408;2023-03-26T04:32:41;94620.84;;;10.33;68.27
19761;BME280;10039;42.632;23.408;2023-03-26T04:35:11;94649.00;;;10.50;68.21
19761;BME280;10039;42.632;23.408;2023-03-26T04:37:38;94639.47;;;10.17;68.72
19761;BME280;10039;42.632;23.408;2023-03-26T04:40:08;94619.41;;;10.12;68.57
19761;BME280;10039;42.632;23.408;2023-03-26T04:42:36;94619.81;;;10.27;68.10
19761;BME280;10039;42.632;23.408;2023-03-26T04:45:06;94657.81;;;10.47;68.37
19761;BME280;10039;42.632;23.408;2023-03-26T04:47:32;94682.25;;;10.29;68.74
19761;BME280;10039;42.632;23.408;2023-03-26T04:50:03;94671.16;;;10.47;68.50
19761;BME280;10039;42.632;23.408;2023-03-26T04:52:29;94646.16;;;10.41;67.82
19761;BME280;10039;42.632;23.408;2023-03-26T04:54:55;94656.91;;;10.37;67.68
19761;BME280;10039;42.632;23.408;2023-03-26T04:57:36;94647.06;;;10.34;67.37
19761;BME280;10039;42.632;23.408;2023-03-26T05:00:06;94639.16;;;10.31;67.20
19761;BME280;10039;42.632;23.408;2023-03-26T05:02:43;94668.59;;;10.43;67.61
19761;BME280;10039;42.632;23.408;2023-03-26T05:05:10;94662.75;;;10.48;67.46
19761;BME280;10039;42.632;23.408;2023-03-26T05:07:36;94657.59;;;10.41;67.76
19761;BME280;10039;42.632;23.408;2023-03-26T05:10:02;94642.66;;;10.28;67.30
19761;BME280;10039;42.632;23.408;2023-03-26T05:12:28;94659.00;;;10.46;67.36
19761;BME280;10039;42.632;23.408;2023-03-26T05:14:54;94683.50;;;10.41;67.09
19761;BME280;10039;42.632;23.408;2023-03-26T05:17:21;94671.31;;;10.40;67.00
19761;BME280;10039;42.632;23.408;2023-03-26T05:19:48;94653.72;;;10.26;66.54
19761;BME280;10039;42.632;23.408;2023-03-26T05:22:14;94665.00;;;10.34;65.77
19761;BME280;10039;42.632;23.408;2023-03-26T05:24:39;94660.91;;;10.29;66.13
19761;BME280;10039;42.632;23.408;2023-03-26T05:27:05;94667.59;;;10.37;65.93
19761;BME280;10039;42.632;23.408;2023-03-26T05:29:31;94672.50;;;10.39;66.44
19761;BME280;10039;42.632;23.408;2023-03-26T05:31:57;94685.34;;;10.28;65.65
19761;BME280;10039;42.632;23.408;2023-03-26T05:34:22;94678.16;;;10.25;66.30
19761;BME280;10039;42.632;23.408;2023-03-26T05:36:50;94696.00;;;10.28;66.33
19761;BME280;10039;42.632;23.408;2023-03-26T05:39:16;94685.66;;;10.30;66.95
19761;BME280;10039;42.632;23.408;2023-03-26T05:41:42;94702.34;;;10.50;66.38
19761;BME280;10039;42.632;23.408;2023-03-26T05:44:08;94657.00;;;10.34;65.86
19761;BME280;10039;42.632;23.408;2023-03-26T05:46:33;94691.03;;;10.62;66.45
19761;BME280;10039;42.632;23.408;2023-03-26T05:48:59;94678.75;;;10.32;66.63
19761;BME280;10039;42.632;23.408;2023-03-26T05:51:24;94675.56;;;10.53;66.19
19761;BME280;10039;42.632;23.408;2023-03-26T05:53:50;94683.03;;;10.62;66.10
19761;BME280;10039;42.632;23.408;2023-03-26T05:56:16;94673.59;;;10.41;66.04
19761;BME280;10039;42.632;23.408;2023-03-26T05:58:42;94663.84;;;10.35;66.30
19761;BME280;10039;42.632;23.408;2023-03-26T06:01:12;94682.91;;;10.33;65.70
19761;BME280;10039;42.632;23.408;2023-03-26T06:03:42;94672.72;;;10.28;65.90
19761;BME280;10039;42.632;23.408;2023-03-26T06:06:13;94657.75;;;10.34;65.60
19761;BME280;10039;42.632;23.408;2023-03-26T06:08:44;94656.16;;;10.53;66.07
19761;BME280;10039;42.632;23.408;2023-03-26T06:11:14;94670.50;;;10.59;65.85
19761;BME280;10039;42.632;23.408;2023-03-26T06:13:41;94670.44;;;10.46;65.70
19761;BME280;10039;42.632;23.408;2023-03-26T06:16:08;94659.44;;;10.44;64.97
19761;BME280;10039;42.632;23.408;2023-03-26T06:18:35;94647.25;;;10.43;64.21
19761;BME280;10039;42.632;23.408;2023-03-26T06:21:01;94649.13;;;10.75;64.46
19761;BME280;10039;42.632;23.408;2023-03-26T06:23:27;94663.81;;;10.99;64.07
19761;BME280;10039;42.632;23.408;2023-03-26T06:25:52;94672.03;;;11.04;62.37
19761;BME280;10039;42.632;23.408;2023-03-26T06:28:18;94672.25;;;11.25;62.67
19761;BME280;10039;42.632;23.408;2023-03-26T06:30:44;94671.09;;;11.26;62.40
19761;BME280;10039;42.632;23.408;2023-03-26T06:33:09;94684.53;;;11.51;61.68
19761;BME280;10039;42.632;23.408;2023-03-26T06:35:35;94674.78;;;11.45;61.97
19761;BME280;10039;42.632;23.408;2023-03-26T06:38:01;94659.72;;;11.51;61.85
19761;BME280;10039;42.632;23.408;2023-03-26T06:40:27;94663.88;;;11.52;60.77
19761;BME280;10039;42.632;23.408;2023-03-26T06:42:53;94673.03;;;11.67;60.14
19761;BME280;10039;42.632;23.408;2023-03-26T06:45:20;94675.75;;;11.79;60.35
19761;BME280;10039;42.632;23.408;2023-03-26T06:47:46;94684.63;;;11.89;59.13
19761;BME280;10039;42.632;23.408;2023-03-26T06:50:12;94678.78;;;12.06;59.80
19761;BME280;10039;42.632;23.408;2023-03-26T06:52:38;94687.03;;;12.24;59.54
19761;BME280;10039;42.632;23.408;2023-03-26T06:55:04;94698.72;;;12.42;58.93
19761;BME280;10039;42.632;23.408;2023-03-26T06:57:31;94673.09;;;12.17;58.08
19761;BME280;10039;42.632;23.408;2023-03-26T06:59:57;94690.91;;;12.23;56.68
19761;BME280;10039;42.632;23.408;2023-03-26T07:02:22;94704.59;;;12.50;56.69
19761;BME280;10039;42.632;23.408;2023-03-26T07:04:48;94697.00;;;12.36;56.46
19761;BME280;10039;42.632;23.408;2023-03-26T07:07:14;94704.69;;;12.34;56.37
19761;BME280;10039;42.632;23.408;2023-03-26T07:09:40;94703.19;;;12.33;56.48
19761;BME280;10039;42.632;23.408;2023-03-26T07:12:06;94699.78;;;12.32;56.61
19761;BME280;10039;42.632;23.408;2023-03-26T07:14:31;94718.41;;;12.48;56.09
19761;BME280;10039;42.632;23.408;2023-03-26T07:16:57;94683.41;;;12.43;56.29
19761;BME280;10039;42.632;23.408;2023-03-26T07:19:23;94713.47;;;12.72;55.50
19761;BME280;10039;42.632;23.408;2023-03-26T07:21:49;94678.50;;;12.41;56.22
19761;BME280;10039;42.632;23.408;2023-03-26T07:24:16;94693.44;;;12.51;56.42
19761;BME280;10039;42.632;23.408;2023-03-26T07:35:19;94691.50;;;12.77;55.44
19761;BME280;10039;42.632;23.408;2023-03-26T07:38:12;94682.16;;;12.81;54.24
19761;BME280;10039;42.632;23.408;2023-03-26T07:46:49;94653.03;;;12.83;53.72
19761;BME280;10039;42.632;23.408;2023-03-26T07:49:18;94673.59;;;12.99;53.21
19761;BME280;10039;42.632;23.408;2023-03-26T07:51:50;94673.03;;;13.04;52.88
19761;BME280;10039;42.632;23.408;2023-03-26T07:54:16;94686.69;;;13.31;52.03
19761;BME280;10039;42.632;23.408;2023-03-26T07:56:54;94669.91;;;13.39;51.21
19761;BME280;10039;42.632;23.408;2023-03-26T08:04:32;94698.63;;;13.51;49.96
19761;BME280;10039;42.632;23.408;2023-03-26T08:12:44;94683.56;;;13.96;49.97
19761;BME280;10039;42.632;23.408;2023-03-26T08:15:39;94660.38;;;13.81;49.57
19761;BME280;10039;42.632;23.408;2023-03-26T08:20:49;94685.28;;;14.33;49.14
19761;BME280;10039;42.632;23.408;2023-03-26T08:24:07;94694.72;;;14.47;47.59
19761;BME280;10039;42.632;23.408;2023-03-26T08:28:56;94677.69;;;14.32;48.42
19761;BME280;10039;42.632;23.408;2023-03-26T08:31:30;94689.19;;;14.41;47.80
19761;BME280;10039;42.632;23.408;2023-03-26T08:33:58;94657.81;;;14.29;47.54
19761;BME280;10039;42.632;23.408;2023-03-26T08:36:23;94684.63;;;14.20;47.45
19761;BME280;10039;42.632;23.408;2023-03-26T08:38:49;94661.47;;;14.14;47.60
19761;BME280;10039;42.632;23.408;2023-03-26T08:41:27;94682.97;;;14.53;47.36
19761;BME280;10039;42.632;23.408;2023-03-26T08:44:13;94690.16;;;14.56;45.63
19761;BME280;10039;42.632;23.408;2023-03-26T09:27:39;94670.47;;;14.59;41.85
19761;BME280;10039;42.632;23.408;2023-03-26T09:33:07;94650.38;;;14.33;41.41
19761;BME280;10039;42.632;23.408;2023-03-26T09:38:51;94634.16;;;14.46;43.85
19761;BME280;10039;42.632;23.408;2023-03-26T09:41:42;94662.16;;;14.75;41.91
19761;BME280;10039;42.632;23.408;2023-03-26T09:44:31;94657.06;;;14.68;42.46
19761;BME280;10039;42.632;23.408;2023-03-26T10:21:53;94610.53;;;14.98;42.85
19761;BME280;10039;42.632;23.408;2023-03-26T10:40:40;94558.13;;;14.75;42.18
19761;BME280;10039;42.632;23.408;2023-03-26T10:52:17;94551.56;;;14.58;39.89
19761;BME280;10039;42.632;23.408;2023-03-26T10:57:59;94542.47;;;14.74;39.83
19761;BME280;10039;42.632;23.408;2023-03-26T11:00:26;94526.03;;;14.63;39.70
19761;BME280;10039;42.632;23.408;2023-03-26T11:11:07;94543.19;;;15.10;39.98
19761;BME280;10039;42.632;23.408;2023-03-26T11:13:52;94542.28;;;15.22;39.29
19761;BME280;10039;42.632;23.408;2023-03-26T11:16:31;94521.69;;;15.01;38.22
19761;BME280;10039;42.632;23.408;2023-03-26T11:19:12;94538.72;;;15.25;39.55
19761;BME280;10039;42.632;23.408;2023-03-26T11:33:09;94490.78;;;14.97;37.42
19761;BME280;10039;42.632;23.408;2023-03-26T11:35:46;94509.72;;;15.20;36.06
19761;BME280;10039;42.632;23.408;2023-03-26T11:40:51;94516.75;;;15.36;35.82
19761;BME280;10039;42.632;23.408;2023-03-26T11:43:22;94494.94;;;15.16;36.47
19761;BME280;10039;42.632;23.408;2023-03-26T11:45:49;94504.34;;;15.20;36.79
19761;BME280;10039;42.632;23.408;2023-03-26T11:48:48;94508.97;;;15.20;35.55
19761;BME280;10039;42.632;23.408;2023-03-26T11:51:27;94496.13;;;15.24;36.37
19761;BME280;10039;42.632;23.408;2023-03-26T11:53:54;94460.00;;;15.16;36.82
19761;BME280;10039;42.632;23.408;2023-03-26T12:04:37;94450.06;;;15.49;34.47
19761;BME280;10039;42.632;23.408;2023-03-26T12:07:14;94451.22;;;15.57;35.34
19761;BME280;10039;42.632;23.408;2023-03-26T12:09:50;94422.63;;;15.36;35.43
19761;BME280;10039;42.632;23.408;2023-03-26T12:12:16;94427.53;;;15.46;34.00
19761;BME280;10039;42.632;23.408;2023-03-26T12:14:43;94454.81;;;15.54;33.35
19761;BME280;10039;42.632;23.408;2023-03-26T12:17:14;94388.59;;;15.33;33.71
19761;BME280;10039;42.632;23.408;2023-03-26T12:19:49;94417.38;;;15.41;34.38
19761;BME280;10039;42.632;23.408;2023-03-26T12:22:34;94443.78;;;15.52;34.14
19761;BME280;10039;42.632;23.408;2023-03-26T12:25:17;94434.09;;;15.45;34.14
19761;BME280;10039;42.632;23.408;2023-03-26T12:30:40;94420.75;;;15.51;32.81
19761;BME280;10039;42.632;23.408;2023-03-26T12:33:15;94424.50;;;15.53;33.29
19761;BME280;10039;42.632;23.408;2023-03-26T12:35:43;94389.31;;;15.33;33.22
19761;BME280;10039;42.632;23.408;2023-03-26T12:43:44;94361.59;;;15.51;32.85
19761;BME280;10039;42.632;23.408;2023-03-26T12:46:31;94382.53;;;15.79;33.28
19761;BME280;10039;42.632;23.408;2023-03-26T12:49:03;94373.81;;;15.61;33.11
19761;BME280;10039;42.632;23.408;2023-03-26T13:00:04;94374.03;;;15.95;29.90
19761;BME280;10039;42.632;23.408;2023-03-26T13:08:50;94366.00;;;16.09;30.32
19761;BME280;10039;42.632;23.408;2023-03-26T13:11:33;94353.81;;;15.99;30.03
19761;BME280;10039;42.632;23.408;2023-03-26T13:14:21;94364.09;;;16.24;29.28
19761;BME280;10039;42.632;23.408;2023-03-26T13:17:01;94351.16;;;16.14;28.82
19761;BME280;10039;42.632;23.408;2023-03-26T13:20:17;94362.31;;;16.21;30.03
19761;BME280;10039;42.632;23.408;2023-03-26T13:23:11;94352.66;;;16.15;30.39
19761;BME280;10039;42.632;23.408;2023-03-26T13:33:47;94363.59;;;16.35;27.18
19761;BME280;10039;42.632;23.408;2023-03-26T13:36:30;94350.78;;;16.44;27.27
19761;BME280;10039;42.632;23.408;2023-03-26T13:41:45;94338.34;;;16.61;28.04
19761;BME280;10039;42.632;23.408;2023-03-26T13:44:41;94347.56;;;16.69;27.55
19761;BME280;10039;42.632;23.408;2023-03-26T13:47:20;94351.56;;;16.74;27.01
19761;BME280;10039;42.632;23.408;2023-03-26T13:49:53;94333.41;;;16.45;27.85
19761;BME280;10039;42.632;23.408;2023-03-26T13:58:24;94309.59;;;16.29;29.04
19761;BME280;10039;42.632;23.408;2023-03-26T14:01:09;94341.13;;;16.52;28.30
19761;BME280;10039;42.632;23.408;2023-03-26T14:09:30;94343.09;;;16.52;27.51
19761;BME280;10039;42.632;23.408;2023-03-26T14:15:39;94341.88;;;16.53;25.15
19761;BME280;10039;42.632;23.408;2023-03-26T14:18:23;94340.22;;;16.55;25.30
19761;BME280;10039;42.632;23.408;2023-03-26T14:24:10;94315.75;;;16.44;25.39
19761;BME280;10039;42.632;23.408;2023-03-26T14:29:44;94316.50;;;16.45;26.55
19761;BME280;10039;42.632;23.408;2023-03-26T14:32:24;94324.03;;;16.55;27.34
19761;BME280;10039;42.632;23.408;2023-03-26T14:46:50;94309.00;;;16.63;28.17
19761;BME280;10039;42.632;23.408;2023-03-26T15:29:32;94324.91;;;16.23;29.91
19761;BME280;10039;42.632;23.408;2023-03-26T15:43:50;94304.53;;;15.93;29.92
19761;BME280;10039;42.632;23.408;2023-03-26T15:46:30;94320.41;;;16.06;30.22
19761;BME280;10039;42.632;23.408;2023-03-26T15:51:45;94318.34;;;16.01;29.82
19761;BME280;10039;42.632;23.408;2023-03-26T15:57:26;94321.34;;;16.03;29.99
19761;BME280;10039;42.632;23.408;2023-03-26T16:16:21;94326.88;;;15.85;31.34
19761;BME280;10039;42.632;23.408;2023-03-26T16:18:54;94327.44;;;15.89;30.85
19761;BME280;10039;42.632;23.408;2023-03-26T16:26:51;94323.56;;;15.67;31.68
19761;BME280;10039;42.632;23.408;2023-03-26T16:29:28;94323.38;;;15.70;32.66
19761;BME280;10039;42.632;23.408;2023-03-26T16:32:44;94313.13;;;15.36;32.58
19761;BME280;10039;42.632;23.408;2023-03-26T16:37:44;94321.97;;;15.28;32.64
19761;BME280;10039;42.632;23.408;2023-03-26T16:45:31;94341.94;;;15.45;33.03
19761;BME280;10039;42.632;23.408;2023-03-26T16:48:20;94344.19;;;15.37;33.73
19761;BME280;10039;42.632;23.408;2023-03-26T16:51:15;94320.78;;;15.20;34.23
19761;BME280;10039;42.632;23.408;2023-03-26T17:04:55;94354.97;;;14.87;35.01
19761;BME280;10039;42.632;23.408;2023-03-26T17:07:51;94328.19;;;14.60;36.14
19761;BME280;10039;42.632;23.408;2023-03-26T17:13:10;94351.75;;;14.65;37.57
19761;BME280;10039;42.632;23.408;2023-03-26T17:18:57;94364.63;;;14.34;37.91
19761;BME280;10039;42.632;23.408;2023-03-26T17:33:26;94346.13;;;14.18;39.25
19761;BME280;10039;42.632;23.408;2023-03-26T17:36:30;94359.22;;;13.98;40.12
19761;BME280;10039;42.632;23.408;2023-03-26T17:50:06;94346.09;;;13.73;40.82
19761;BME280;10039;42.632;23.408;2023-03-26T17:52:57;94362.50;;;13.84;41.28
19761;BME280;10039;42.632;23.408;2023-03-26T17:55:30;94356.69;;;13.68;42.07
19761;BME280;10039;42.632;23.408;2023-03-26T17:58:02;94340.69;;;13.46;41.66
19761;BME280;10039;42.632;23.408;2023-03-26T18:00:32;94340.94;;;13.31;42.28
19761;BME280;10039;42.632;23.408;2023-03-26T18:03:16;94341.22;;;13.15;41.86
19761;BME280;10039;42.632;23.408;2023-03-26T18:05:47;94325.41;;;13.08;42.65
19761;BME280;10039;42.632;23.408;2023-03-26T18:16:28;94359.94;;;13.06;41.67
19761;BME280;10039;42.632;23.408;2023-03-26T18:18:58;94340.81;;;12.95;41.40
19761;BME280;10039;42.632;23.408;2023-03-26T18:21:31;94338.97;;;12.83;41.64
19761;BME280;10039;42.632;23.408;2023-03-26T18:23:58;94324.97;;;12.79;42.07
19761;BME280;10039;42.632;23.408;2023-03-26T18:26:43;94353.19;;;12.92;42.07
19761;BME280;10039;42.632;23.408;2023-03-26T18:31:58;94339.97;;;12.46;43.39
19761;BME280;10039;42.632;23.408;2023-03-26T18:34:32;94344.19;;;12.56;43.78
19761;BME280;10039;42.632;23.408;2023-03-26T18:37:13;94347.50;;;12.38;44.07
19761;BME280;10039;42.632;23.408;2023-03-26T18:39:43;94343.44;;;12.34;43.70
19761;BME280;10039;42.632;23.408;2023-03-26T18:42:20;94309.44;;;11.92;44.08
19761;BME280;10039;42.632;23.408;2023-03-26T18:44:48;94323.91;;;12.03;44.12
19761;BME280;10039;42.632;23.408;2023-03-26T18:47:15;94319.88;;;11.99;44.38
19761;BME280;10039;42.632;23.408;2023-03-26T18:49:46;94334.69;;;12.12;44.80
19761;BME280;10039;42.632;23.408;2023-03-26T18:52:17;94309.00;;;11.93;44.85
19761;BME280;10039;42.632;23.408;2023-03-26T18:54:48;94299.91;;;11.91;44.52
19761;BME280;10039;42.632;23.408;2023-03-26T18:57:27;94298.88;;;11.88;44.83
19761;BME280;10039;42.632;23.408;2023-03-26T18:59:55;94317.53;;;12.01;45.18
19761;BME280;10039;42.632;23.408;2023-03-26T19:02:22;94276.66;;;11.57;45.29
19761;BME280;10039;42.632;23.408;2023-03-26T19:04:49;94292.81;;;11.75;44.69
19761;BME280;10039;42.632;23.408;2023-03-26T19:07:20;94265.31;;;11.53;44.83
19761;BME280;10039;42.632;23.408;2023-03-26T19:09:49;94283.50;;;11.58;44.74
19761;BME280;10039;42.632;23.408;2023-03-26T19:12:28;94261.06;;;11.43;44.83
19761;BME280;10039;42.632;23.408;2023-03-26T19:17:25;94301.63;;;11.63;45.53
19761;BME280;10039;42.632;23.408;2023-03-26T19:19:53;94270.38;;;11.39;45.55
19761;BME280;10039;42.632;23.408;2023-03-26T19:22:20;94267.03;;;11.47;45.38
19761;BME280;10039;42.632;23.408;2023-03-26T19:24:49;94267.38;;;11.37;45.82
19761;BME280;10039;42.632;23.408;2023-03-26T19:27:18;94274.72;;;11.45;45.35
19761;BME280;10039;42.632;23.408;2023-03-26T19:29:45;94248.41;;;11.22;45.14
19761;BME280;10039;42.632;23.408;2023-03-26T19:32:17;94251.94;;;11.19;45.84
19761;BME280;10039;42.632;23.408;2023-03-26T19:34:45;94274.97;;;11.38;45.77
19761;BME280;10039;42.632;23.408;2023-03-26T19:37:24;94278.81;;;11.37;46.01
19761;BME280;10039;42.632;23.408;2023-03-26T19:40:00;94256.75;;;11.24;45.89